Time;durP1;ratioP1;P1;durP2;ratioP2;P2;SDS_P1;SDS_P2;PMS_P1;PMS_P2;Temp;Humidity;BMP_temperature;BMP_pressure;BME280_temperature;BME280_humidity;BME280_pressure;Samples;Min_cycle;Max_cycle;Signal;HPM_P1;HPM_P2
2023/06/29 00:01:25;;;;;;;5.92;4.65;;;;;;;16.67;70.35;99845.46;1770774;81;21344;-57
2023/06/29 00:04:32;;;;;;;8.50;4.53;;;;;;;16.63;70.41;99834.56;1770742;80;21260;-56
2023/06/29 00:07:38;;;;;;;5.87;3.95;;;;;;;16.59;70.38;99837.46;1770642;80;21232;-56
2023/06/29 00:10:44;;;;;;;6.28;4.15;;;;;;;16.56;70.40;99843.45;1762529;81;21849;-56
2023/06/29 00:13:50;;;;;;;5.10;3.95;;;;;;;16.51;70.40;99835.84;1763798;81;21204;-56
2023/06/29 00:16:59;;;;;;;5.53;3.77;;;;;;;16.47;70.37;99833.77;1770612;80;21197;-56
2023/06/29 00:20:09;;;;;;;7.03;3.80;;;;;;;16.43;70.39;99838.34;1770820;80;21768;-55
2023/06/29 00:23:13;;;;;;;7.65;3.90;;;;;;;16.39;70.43;99837.08;1770944;80;21185;-56
2023/06/29 00:26:19;;;;;;;4.50;3.62;;;;;;;16.36;70.42;99833.39;1770703;80;21290;-56
2023/06/29 00:29:25;;;;;;;6.05;3.33;;;;;;;16.32;70.47;99821.13;1770694;79;21197;-56
2023/06/29 00:32:31;;;;;;;5.58;4.00;;;;;;;16.27;70.53;99826.47;1770675;80;21209;-57
2023/06/29 00:35:38;;;;;;;7.40;3.37;;;;;;;16.25;70.53;99826.41;1770734;80;21209;-55
2023/06/29 00:38:47;;;;;;;7.53;3.87;;;;;;;16.21;70.51;99819.63;1770933;81;21243;-55
2023/06/29 00:42:01;;;;;;;6.45;4.45;;;;;;;16.15;70.53;99813.10;1770096;81;21200;-56
2023/06/29 00:45:08;;;;;;;6.17;3.98;;;;;;;16.14;70.55;99803.66;1772467;81;21470;-55
2023/06/29 00:48:14;;;;;;;5.05;3.52;;;;;;;16.10;70.65;99801.88;1772430;80;21335;-55
2023/06/29 00:51:21;;;;;;;7.85;3.87;;;;;;;16.10;70.73;99802.41;1772471;80;21339;-55
2023/06/29 00:54:27;;;;;;;5.20;3.65;;;;;;;16.09;70.82;99797.41;1772713;80;21375;-55
2023/06/29 00:57:34;;;;;;;5.25;4.10;;;;;;;16.09;70.88;99793.27;1772521;80;21335;-56
2023/06/29 01:00:43;;;;;;;4.33;3.58;;;;;;;16.08;70.93;99784.69;1773265;80;21193;-56
2023/06/29 01:03:52;;;;;;;4.87;3.85;;;;;;;16.08;70.97;99781.92;1772467;80;21335;-55
2023/06/29 01:07:11;;;;;;;5.35;3.90;;;;;;;16.09;70.98;99782.78;1772320;81;21876;-55
2023/06/29 01:10:17;;;;;;;7.53;4.00;;;;;;;16.09;71.01;99778.08;1773144;80;21367;-55
2023/06/29 01:13:26;;;;;;;4.97;4.03;;;;;;;16.09;71.04;99777.25;1772407;80;21277;-55
2023/06/29 01:16:33;;;;;;;5.17;4.05;;;;;;;16.09;71.11;99778.08;1772552;80;21335;-56
2023/06/29 01:19:42;;;;;;;7.28;3.98;;;;;;;16.10;71.17;99782.55;1773003;80;21488;-55
2023/06/29 01:22:58;;;;;;;6.12;3.92;;;;;;;16.10;71.23;99773.41;1772502;80;21335;-56
2023/06/29 01:26:05;;;;;;;8.40;4.20;;;;;;;16.09;71.29;99775.31;1772355;80;21465;-57
2023/06/29 01:29:13;;;;;;;5.37;3.98;;;;;;;16.09;71.32;99771.17;1772375;79;21367;-56
2023/06/29 01:32:18;;;;;;;7.30;4.20;;;;;;;16.09;71.36;99771.17;1772502;80;21698;-56
2023/06/29 01:35:24;;;;;;;5.25;3.98;;;;;;;16.06;71.41;99771.63;1772442;80;21347;-56
2023/06/29 01:38:38;;;;;;;10.43;4.40;;;;;;;16.04;71.42;99773.80;1772354;80;21348;-55
2023/06/29 01:41:48;;;;;;;4.92;4.08;;;;;;;16.01;71.46;99771.49;1772628;80;21848;-56
2023/06/29 01:44:55;;;;;;;6.92;4.67;;;;;;;15.98;71.54;99769.16;1771423;80;21343;-56
2023/06/29 01:48:03;;;;;;;5.75;4.22;;;;;;;15.96;71.57;99762.17;1772422;80;22184;-57
2023/06/29 01:51:10;;;;;;;5.10;4.12;;;;;;;15.91;71.57;99760.10;1772446;80;21331;-56
2023/06/29 01:54:18;;;;;;;6.47;4.58;;;;;;;15.89;71.65;99761.38;1772367;81;21363;-56
2023/06/29 01:57:25;;;;;;;6.25;4.92;;;;;;;15.88;71.74;99760.55;1772390;79;21379;-56
2023/06/29 02:00:31;;;;;;;6.60;4.65;;;;;;;15.85;71.75;99762.91;1772567;80;21397;-56
2023/06/29 02:03:38;;;;;;;6.40;4.15;;;;;;;15.83;71.83;99764.52;1772299;80;21351;-56
2023/06/29 02:06:44;;;;;;;5.83;4.35;;;;;;;15.81;71.82;99765.27;1772401;80;21339;-58
2023/06/29 02:09:51;;;;;;;6.10;4.60;;;;;;;15.79;71.86;99764.64;1772345;80;21931;-56
2023/06/29 02:12:56;;;;;;;5.60;4.80;;;;;;;15.77;71.94;99763.19;1772473;80;22212;-55
2023/06/29 02:16:04;;;;;;;8.05;4.90;;;;;;;15.76;72.02;99768.41;1772503;79;21430;-56
2023/06/29 02:19:10;;;;;;;6.10;4.65;;;;;;;15.75;72.07;99759.27;1772829;79;21328;-55
2023/06/29 02:22:17;;;;;;;9.23;5.85;;;;;;;15.75;72.10;99754.28;1772422;80;21375;-55
2023/06/29 02:25:24;;;;;;;7.20;5.10;;;;;;;15.74;72.15;99761.73;1772794;80;21355;-55
2023/06/29 02:28:32;;;;;;;7.53;4.80;;;;;;;15.74;72.26;99757.59;1772914;80;21409;-55
2023/06/29 02:31:39;;;;;;;8.10;5.08;;;;;;;15.75;72.33;99763.41;1772738;80;21390;-55
2023/06/29 02:34:47;;;;;;;6.92;5.15;;;;;;;15.76;72.42;99762.33;1765366;80;21264;-56
2023/06/29 02:37:53;;;;;;;6.67;4.87;;;;;;;15.78;72.49;99758.82;1772792;80;21347;-56
2023/06/29 02:40:58;;;;;;;6.37;4.95;;;;;;;15.81;72.56;99754.23;1772866;80;21346;-56
2023/06/29 02:44:04;;;;;;;8.80;5.30;;;;;;;15.82;72.56;99744.90;1772849;80;21825;-56
2023/06/29 02:47:15;;;;;;;6.22;5.12;;;;;;;15.83;72.60;99752.09;1772812;80;21904;-55
2023/06/29 02:50:21;;;;;;;9.45;4.85;;;;;;;15.86;72.68;99739.75;1772713;80;21352;-55
2023/06/29 02:53:27;;;;;;;10.88;5.30;;;;;;;15.90;72.76;99744.59;1772763;80;21333;-56
2023/06/29 02:56:33;;;;;;;6.45;5.20;;;;;;;15.96;72.85;99741.48;1772742;80;21852;-56
2023/06/29 02:59:39;;;;;;;8.83;5.42;;;;;;;15.99;72.88;99747.39;1772642;79;21387;-55
2023/06/29 03:02:46;;;;;;;7.92;5.03;;;;;;;16.03;72.93;99745.86;1772719;80;21403;-55
2023/06/29 03:05:54;;;;;;;7.72;5.78;;;;;;;16.08;72.96;99739.12;1772877;80;21344;-55
2023/06/29 03:09:03;;;;;;;6.53;5.60;;;;;;;16.13;72.99;99737.91;1772780;80;21386;-57
2023/06/29 03:12:10;;;;;;;9.88;5.95;;;;;;;16.19;73.02;99731.47;1772795;80;21402;-55
2023/06/29 03:15:17;;;;;;;8.48;5.50;;;;;;;16.24;73.10;99725.27;1772575;80;21865;-57
2023/06/29 03:18:23;;;;;;;8.08;5.30;;;;;;;16.29;73.16;99742.00;1772425;80;21335;-58
2023/06/29 03:21:29;;;;;;;9.88;6.03;;;;;;;16.33;73.17;99735.78;1772591;80;21852;-58
2023/06/29 03:24:36;;;;;;;11.33;7.03;;;;;;;16.40;73.24;99737.09;1772489;80;21335;-59
2023/06/29 03:27:43;;;;;;;7.62;5.72;;;;;;;16.46;73.25;99735.39;1773377;80;21387;-60
2023/06/29 03:30:51;;;;;;;8.03;6.60;;;;;;;16.50;73.30;99737.98;1772416;80;21324;-58
2023/06/29 03:33:57;;;;;;;8.05;6.20;;;;;;;16.56;73.36;99743.44;1772543;80;21343;-59
2023/06/29 03:37:03;;;;;;;11.85;6.37;;;;;;;16.61;73.39;99739.98;1772854;80;21338;-57
2023/06/29 03:40:09;;;;;;;7.90;5.83;;;;;;;16.67;73.42;99751.48;1772984;80;21367;-62
2023/06/29 03:43:15;;;;;;;9.73;5.72;;;;;;;16.73;73.45;99746.45;1772347;80;21354;-60
2023/06/29 03:46:20;;;;;;;9.18;5.80;;;;;;;16.77;73.50;99747.13;1772361;79;21398;-58
2023/06/29 03:49:27;;;;;;;7.87;5.92;;;;;;;16.82;73.55;99754.20;1770635;81;21224;-59
2023/06/29 03:52:34;;;;;;;6.30;5.28;;;;;;;16.87;73.59;99758.47;1770843;81;21200;-59
2023/06/29 03:55:41;;;;;;;11.15;6.50;;;;;;;16.94;73.61;99759.77;1770830;81;21729;-59
2023/06/29 03:58:48;;;;;;;8.03;5.20;;;;;;;16.97;73.62;99761.54;1771140;80;21207;-59
2023/06/29 04:01:55;;;;;;;11.35;6.28;;;;;;;17.01;73.68;99771.08;1770931;80;21559;-60
2023/06/29 04:05:02;;;;;;;8.10;5.85;;;;;;;17.07;73.73;99769.29;1770560;80;21204;-59
2023/06/29 04:08:09;;;;;;;8.28;5.33;;;;;;;17.14;73.85;99761.77;1770742;79;21535;-59
2023/06/29 04:11:17;;;;;;;9.08;5.20;;;;;;;17.22;73.91;99762.83;1770947;80;21243;-58
2023/06/29 04:14:22;;;;;;;6.62;5.50;;;;;;;17.29;73.90;99764.41;1770761;80;21239;-58
2023/06/29 04:17:27;;;;;;;9.13;5.70;;;;;;;17.33;73.88;99761.47;1770693;80;21255;-57
2023/06/29 04:20:33;;;;;;;7.40;5.25;;;;;;;17.39;73.93;99756.41;1770609;80;21864;-58
2023/06/29 04:23:39;;;;;;;9.23;5.62;;;;;;;17.43;73.94;99752.08;1797863;79;21709;-59
2023/06/29 04:26:46;;;;;;;7.03;5.45;;;;;;;17.49;73.94;99751.72;1733030;81;21210;-59
2023/06/29 04:29:52;;;;;;;8.93;5.28;;;;;;;17.53;73.95;99748.24;1733657;82;21217;-59
2023/06/29 04:33:09;;;;;;;7.17;5.28;;;;;;;17.59;73.94;99748.67;1733354;83;21198;-59
2023/06/29 04:36:06;;;;;;;7.35;4.97;;;;;;;17.63;73.96;99749.05;1751237;82;21233;-58
2023/06/29 04:39:12;;;;;;;8.15;4.92;;;;;;;17.69;74.04;99748.95;1733993;83;21260;-60
2023/06/29 04:42:18;;;;;;;6.67;5.30;;;;;;;17.77;74.04;99744.42;1727999;81;21941;-58
2023/06/29 04:45:25;;;;;;;6.08;4.83;;;;;;;17.85;74.10;99748.80;1739095;81;21182;-58
2023/06/29 04:48:37;;;;;;;6.70;4.75;;;;;;;17.93;74.09;99744.30;1729332;80;21327;-60
2023/06/29 04:51:38;;;;;;;8.00;6.08;;;;;;;18.02;74.10;99746.16;1791856;78;21172;-56
2023/06/29 04:54:43;;;;;;;6.80;4.65;;;;;;;18.10;74.08;99742.50;1775428;79;21239;-59
2023/06/29 04:57:49;;;;;;;6.75;4.85;;;;;;;18.18;74.06;99739.38;1800822;79;21324;-58
2023/06/29 05:00:55;;;;;;;6.83;4.28;;;;;;;18.25;74.06;99731.77;1706493;82;21378;-54
2023/06/29 05:04:02;;;;;;;8.13;4.15;;;;;;;18.32;73.99;99731.66;1728861;82;21225;-54
2023/06/29 05:07:07;;;;;;;7.00;4.20;;;;;;;18.38;73.96;99727.94;1720443;83;21213;-54
2023/06/29 05:10:14;;;;;;;11.45;6.00;;;;;;;18.42;73.88;99727.23;1724490;82;21268;-54
2023/06/29 05:13:20;;;;;;;7.47;3.80;;;;;;;18.48;73.86;99733.19;1752383;80;21247;-53
2023/06/29 05:16:26;;;;;;;5.08;3.47;;;;;;;18.56;73.86;99730.05;1776694;79;21761;-54
2023/06/29 05:19:34;;;;;;;6.40;3.83;;;;;;;18.63;73.81;99718.84;1781646;79;21737;-53
2023/06/29 05:22:40;;;;;;;6.53;3.90;;;;;;;18.70;73.73;99716.22;1775609;79;21248;-53
2023/06/29 05:25:47;;;;;;;6.33;4.30;;;;;;;18.74;73.66;99713.80;1785534;79;21907;-53
2023/06/29 05:28:52;;;;;;;6.33;3.77;;;;;;;18.82;73.63;99721.18;1776921;79;21217;-54
2023/06/29 05:32:02;;;;;;;5.62;3.52;;;;;;;18.89;73.57;99713.58;1770527;79;21295;-54
2023/06/29 05:35:11;;;;;;;8.28;3.80;;;;;;;18.93;73.53;99710.59;1773039;79;21358;-53
2023/06/29 05:38:18;;;;;;;8.78;3.80;;;;;;;18.98;73.44;99714.86;1776473;79;21351;-52
2023/06/29 05:41:30;;;;;;;9.28;4.83;;;;;;;19.02;73.40;99706.37;1775316;79;22020;-54
2023/06/29 05:44:36;;;;;;;5.17;3.62;;;;;;;19.12;73.41;99709.89;1797712;79;21881;-54
2023/06/29 05:47:43;;;;;;;6.67;3.30;;;;;;;19.18;73.33;99702.80;1802560;79;21351;-53
2023/06/29 05:50:51;;;;;;;4.50;3.30;;;;;;;19.26;73.28;99712.13;1794028;79;21959;-53
2023/06/29 05:53:57;;;;;;;5.55;3.83;;;;;;;19.33;73.20;99709.77;1784589;79;21355;-54
2023/06/29 05:57:06;;;;;;;5.60;3.15;;;;;;;19.39;73.18;99701.83;1803232;78;21348;-54
2023/06/29 06:00:12;;;;;;;5.12;3.10;;;;;;;19.47;73.16;99701.42;1799101;79;21503;-54
2023/06/29 06:03:22;;;;;;;8.25;3.67;;;;;;;19.55;73.04;99701.84;1748169;79;21888;-53
2023/06/29 06:06:30;;;;;;;5.75;4.30;;;;;;;19.60;72.91;99704.71;1786776;79;21903;-55
2023/06/29 06:09:36;;;;;;;3.95;2.90;;;;;;;19.69;72.89;99703.77;1802989;79;21383;-53
2023/06/29 06:12:42;;;;;;;4.62;3.08;;;;;;;19.77;72.74;99697.80;1802886;79;21354;-53
2023/06/29 06:15:49;;;;;;;6.35;3.15;;;;;;;19.85;72.62;99699.59;1802424;79;21339;-53
2023/06/29 06:18:55;;;;;;;4.28;3.12;;;;;;;19.93;72.56;99699.73;1781402;79;22023;-55
2023/06/29 06:22:00;;;;;;;4.08;2.58;;;;;;;20.03;72.56;99706.29;1772997;79;21228;-55
2023/06/29 06:25:06;;;;;;;6.72;2.90;;;;;;;20.15;72.42;99693.73;1787829;79;21684;-55
2023/06/29 06:28:10;;;;;;;6.08;2.50;;;;;;;20.23;72.25;99703.03;1774612;79;21724;-55
2023/06/29 06:31:17;;;;;;;6.10;2.52;;;;;;;20.30;72.10;99698.97;1788777;78;21958;-55
2023/06/29 06:34:30;;;;;;;5.22;2.45;;;;;;;20.34;71.89;99688.19;1801117;78;22189;-55
2023/06/29 06:37:34;;;;;;;4.12;2.12;;;;;;;20.33;71.64;99694.83;1781183;78;21207;-55
2023/06/29 06:40:39;;;;;;;3.75;2.00;;;;;;;20.34;71.54;99698.73;1790602;79;21346;-55
2023/06/29 06:43:46;;;;;;;5.33;1.62;;;;;;;20.41;71.48;99699.95;1781089;79;21409;-53
2023/06/29 06:46:52;;;;;;;4.78;2.05;;;;;;;20.50;71.41;99692.88;1782751;79;21344;-54
2023/06/29 06:49:59;;;;;;;5.03;2.00;;;;;;;20.55;71.17;99690.98;1709357;81;21192;-53
2023/06/29 06:53:05;;;;;;;4.40;2.60;;;;;;;20.57;70.95;99683.77;1778686;79;21744;-53
2023/06/29 06:56:12;;;;;;;4.58;2.35;;;;;;;20.59;70.83;99684.37;1787786;79;21856;-56
2023/06/29 06:59:20;;;;;;;5.92;3.50;;;;;;;20.66;70.74;99685.03;1766798;79;21769;-57
2023/06/29 07:02:25;;;;;;;4.17;1.87;;;;;;;20.71;70.59;99678.12;1783180;79;21149;-55
2023/06/29 07:05:31;;;;;;;3.77;1.72;;;;;;;20.73;70.37;99670.36;1789159;79;21471;-56
2023/06/29 07:08:38;;;;;;;3.37;2.02;;;;;;;20.73;70.16;99670.36;1798019;79;21451;-60
2023/06/29 07:11:47;;;;;;;2.47;1.72;;;;;;;20.73;69.98;99666.19;1785225;78;21196;-57
2023/06/29 07:14:51;;;;;;;3.85;1.77;;;;;;;20.75;69.91;99659.28;1766690;79;21197;-57
2023/06/29 07:18:01;;;;;;;5.30;2.25;;;;;;;20.80;69.80;99655.72;1790131;79;21193;-56
2023/06/29 07:21:06;;;;;;;4.45;2.00;;;;;;;20.91;69.78;99656.13;1769599;79;21667;-55
2023/06/29 07:24:13;;;;;;;4.78;1.82;;;;;;;21.03;69.71;99661.02;1774639;79;21434;-55
2023/06/29 07:27:19;;;;;;;2.98;1.67;;;;;;;21.11;69.50;99659.70;1772564;79;21742;-56
2023/06/29 07:30:24;;;;;;;5.92;2.12;;;;;;;21.18;69.29;99662.60;1790225;79;21402;-55
2023/06/29 07:33:30;;;;;;;4.58;1.85;;;;;;;21.26;68.97;99663.52;1787659;79;21358;-55
2023/06/29 07:36:36;;;;;;;5.40;1.95;;;;;;;21.26;68.67;99664.91;1780810;79;21801;-55
2023/06/29 07:39:45;;;;;;;4.53;1.80;;;;;;;21.27;68.50;99656.84;1782058;79;21791;-53
2023/06/29 07:42:51;;;;;;;5.83;1.80;;;;;;;21.36;68.36;99666.96;1781385;79;21184;-53
2023/06/29 07:45:57;;;;;;;2.52;1.52;;;;;;;21.48;68.25;99654.55;1772968;79;21367;-56
2023/06/29 07:49:05;;;;;;;4.60;1.80;;;;;;;21.57;68.07;99652.95;1773576;79;21354;-55
2023/06/29 07:52:11;;;;;;;3.58;1.50;;;;;;;21.68;67.87;99660.30;1781140;78;21205;-54
2023/06/29 07:55:16;;;;;;;3.83;1.32;;;;;;;21.83;67.66;99660.48;1780197;79;21217;-54
2023/06/29 07:58:23;;;;;;;2.98;1.70;;;;;;;21.93;67.36;99662.47;1785001;79;21191;-56
2023/06/29 08:01:32;;;;;;;3.10;1.50;;;;;;;22.04;67.23;99665.66;1779751;79;21308;-56
2023/06/29 08:04:40;;;;;;;3.40;1.30;;;;;;;22.08;66.89;99664.84;1769946;80;21186;-58
2023/06/29 08:07:49;;;;;;;4.37;1.70;;;;;;;22.15;66.69;99666.02;1776068;79;21500;-57
2023/06/29 08:10:59;;;;;;;1.75;1.25;;;;;;;22.25;66.44;99663.84;1782439;79;21189;-56
2023/06/29 08:14:06;;;;;;;11.57;5.42;;;;;;;22.37;66.20;99661.13;1784756;79;21705;-55
2023/06/29 08:17:12;;;;;;;4.53;1.42;;;;;;;22.43;65.79;99653.07;1786279;79;21185;-58
2023/06/29 08:20:20;;;;;;;3.98;1.55;;;;;;;22.35;65.34;99656.91;1760632;80;21197;-54
2023/06/29 08:23:27;;;;;;;2.87;1.40;;;;;;;22.35;65.21;99665.28;1767796;80;21204;-55
2023/06/29 08:26:34;;;;;;;5.72;1.57;;;;;;;22.36;64.99;99665.02;1777491;79;21604;-56
2023/06/29 08:29:40;;;;;;;3.45;1.30;;;;;;;22.36;64.77;99678.14;1738221;81;21259;-56
2023/06/29 08:32:48;;;;;;;3.12;1.37;;;;;;;22.31;64.55;99667.77;1770655;79;21201;-55
2023/06/29 08:35:55;;;;;;;2.25;1.40;;;;;;;22.20;64.24;99667.41;1783613;79;21693;-56
2023/06/29 08:39:02;;;;;;;3.22;1.40;;;;;;;22.06;63.96;99671.23;1782990;79;21718;-56
2023/06/29 08:42:08;;;;;;;4.85;1.62;;;;;;;21.99;63.86;99666.42;1776658;79;21240;-57
2023/06/29 08:45:16;;;;;;;2.37;1.35;;;;;;;22.01;63.77;99664.22;1776071;79;21197;-58
2023/06/29 08:48:23;;;;;;;3.75;1.40;;;;;;;22.02;63.70;99667.28;1779478;79;21184;-54
2023/06/29 08:51:32;;;;;;;2.45;1.50;;;;;;;21.92;63.47;99680.31;1714210;82;21231;-57
2023/06/29 08:54:39;;;;;;;6.17;1.50;;;;;;;21.87;63.38;99672.75;1782242;79;21204;-55
2023/06/29 08:57:46;;;;;;;2.92;1.30;;;;;;;21.93;63.38;99678.65;1781518;79;21873;-58
2023/06/29 09:00:55;;;;;;;2.58;1.45;;;;;;;22.04;63.40;99662.86;1759675;79;21177;-57
2023/06/29 09:04:02;;;;;;;1.52;1.25;;;;;;;22.25;63.40;99658.27;1772212;79;21312;-57
2023/06/29 09:07:08;;;;;;;2.30;1.37;;;;;;;22.45;63.28;99652.25;1783499;79;21185;-57
2023/06/29 09:10:14;;;;;;;2.62;1.42;;;;;;;22.56;62.96;99654.56;1785240;79;21718;-56
2023/06/29 09:13:21;;;;;;;3.22;1.20;;;;;;;22.53;62.59;99653.72;1768756;80;21170;-58
2023/06/29 09:16:31;;;;;;;1.62;1.07;;;;;;;22.51;62.40;99660.08;1782084;79;21737;-58
2023/06/29 09:19:35;;;;;;;2.30;1.57;;;;;;;22.49;62.28;99650.59;1762270;79;21309;-57
2023/06/29 09:22:41;;;;;;;1.37;1.12;;;;;;;22.50;62.16;99643.89;1768935;80;21539;-58
2023/06/29 09:25:48;;;;;;;2.98;1.42;;;;;;;22.53;61.99;99653.17;1771756;79;21380;-57
2023/06/29 09:28:54;;;;;;;1.90;1.22;;;;;;;22.61;61.92;99655.98;1781026;79;21209;-56
2023/06/29 09:32:07;;;;;;;5.40;1.40;;;;;;;22.60;61.70;99657.08;1771764;79;21375;-57
2023/06/29 09:35:15;;;;;;;3.02;1.40;;;;;;;22.41;61.39;99658.62;1786718;79;21782;-56
2023/06/29 09:38:22;;;;;;;4.72;1.42;;;;;;;22.23;61.26;99660.75;1801902;79;21323;-57
2023/06/29 09:41:30;;;;;;;3.15;1.25;;;;;;;22.17;61.23;99657.65;1780456;79;21726;-57
2023/06/29 09:44:36;;;;;;;1.98;1.20;;;;;;;22.15;61.09;99657.07;1777651;78;21950;-55
2023/06/29 09:47:43;;;;;;;4.47;1.30;;;;;;;22.06;60.86;99663.41;1791806;79;21347;-57
2023/06/29 09:50:59;;;;;;;1.57;1.02;;;;;;;21.95;60.73;99664.45;1774280;79;21900;-54
2023/06/29 09:54:08;;;;;;;1.92;1.32;;;;;;;21.83;60.57;99663.27;1787231;78;21896;-57
2023/06/29 09:57:15;;;;;;;4.08;1.30;;;;;;;21.68;60.44;99668.66;1781604;79;21741;-56
2023/06/29 10:00:22;;;;;;;2.08;1.37;;;;;;;21.62;60.47;99666.08;1779888;79;21220;-57
2023/06/29 10:03:31;;;;;;;4.70;1.30;;;;;;;21.63;60.46;99658.00;1789389;79;21351;-57
2023/06/29 10:06:41;;;;;;;2.30;1.25;;;;;;;21.68;60.50;99651.09;1783772;79;21293;-57
2023/06/29 10:09:50;;;;;;;2.02;1.15;;;;;;;21.89;60.62;99651.58;1772900;79;21189;-58
2023/06/29 10:13:01;;;;;;;1.90;1.12;;;;;;;22.13;60.58;99640.34;1777908;79;21183;-58
2023/06/29 10:16:07;;;;;;;2.37;1.20;;;;;;;22.25;60.36;99639.56;1782000;79;21702;-58
2023/06/29 10:19:29;;;;;;;3.55;1.47;;;;;;;22.31;60.16;99639.88;1770705;79;21212;-58
2023/06/29 10:22:35;;;;;;;2.80;1.20;;;;;;;22.31;59.96;99641.84;1761759;79;21167;-58
2023/06/29 10:25:44;;;;;;;2.35;1.00;;;;;;;22.27;59.85;99625.35;1772991;79;21177;-56
2023/06/29 10:28:50;;;;;;;1.47;1.10;;;;;;;22.26;59.80;99636.23;1801727;78;21177;-58
2023/06/29 10:31:57;;;;;;;2.05;1.20;;;;;;;22.27;59.79;99624.80;1767472;79;21386;-57
2023/06/29 10:35:11;;;;;;;1.77;1.40;;;;;;;22.39;59.77;99623.20;1786995;79;21335;-60
2023/06/29 10:38:19;;;;;;;2.27;1.10;;;;;;;22.52;59.84;99617.14;1771604;79;21193;-55
2023/06/29 10:41:35;;;;;;;3.27;1.62;;;;;;;22.68;59.90;99618.89;1781243;79;21190;-55
2023/06/29 10:44:45;;;;;;;10.28;4.65;;;;;;;22.86;59.89;99608.64;1800453;79;21418;-58
2023/06/29 10:48:05;;;;;;;2.05;1.10;;;;;;;23.07;59.80;99605.63;1772122;79;21826;-55
2023/06/29 10:51:14;;;;;;;1.12;1.00;;;;;;;23.16;59.56;99606.78;1782222;79;21259;-56
2023/06/29 10:54:23;;;;;;;1.52;0.80;;;;;;;23.33;59.46;99606.54;1742819;80;21239;-60
2023/06/29 10:57:35;;;;;;;3.45;1.10;;;;;;;23.46;59.22;99606.00;1740810;80;21181;-56
2023/06/29 11:00:41;;;;;;;;;;;;;;;23.61;59.13;99607.39;1773518;80;21224;-58
2023/06/29 11:03:48;;;;;;;1.72;1.10;;;;;;;23.75;58.85;99602.09;1755663;81;20219;-55
2023/06/29 11:06:53;;;;;;;2.60;1.10;;;;;;;23.77;58.59;99599.86;1762000;80;21177;-54
2023/06/29 11:10:09;;;;;;;3.12;1.25;;;;;;;23.81;58.40;99597.62;1756280;81;21562;-54
2023/06/29 11:13:16;;;;;;;2.05;1.10;;;;;;;23.74;58.01;99604.04;1757056;81;21200;-55
2023/06/29 11:16:24;;;;;;;6.30;2.67;;;;;;;23.68;57.99;99609.36;1756723;80;21718;-54
2023/06/29 11:19:36;;;;;;;1.47;1.07;;;;;;;23.61;57.89;99610.19;1784282;80;21410;-51
2023/06/29 11:22:45;;;;;;;1.45;1.00;;;;;;;23.63;57.92;99600.16;1784120;80;21201;-54
2023/06/29 11:25:51;;;;;;;2.67;1.20;;;;;;;23.71;57.81;99599.02;1769392;80;21181;-54
2023/06/29 11:29:00;;;;;;;0.90;0.90;;;;;;;23.71;57.66;99603.75;1764506;80;22017;-53
2023/06/29 11:32:11;;;;;;;1.42;1.10;;;;;;;23.70;57.56;99591.76;1765393;79;21757;-53
2023/06/29 11:35:21;;;;;;;3.33;1.05;;;;;;;23.72;57.44;99602.11;1751044;80;21197;-54
2023/06/29 11:38:29;;;;;;;2.33;1.12;;;;;;;23.82;57.50;99589.50;1766787;80;21181;-55
2023/06/29 11:41:37;;;;;;;1.02;0.85;;;;;;;23.93;57.46;99595.94;1772654;80;21212;-54
2023/06/29 11:44:43;;;;;;;1.62;1.00;;;;;;;24.03;57.35;99602.38;1747948;80;21193;-53
2023/06/29 11:47:51;;;;;;;8.88;2.08;;;;;;;23.96;57.03;99594.79;1783123;80;21876;-53
2023/06/29 11:50:59;;;;;;;3.10;1.02;;;;;;;23.84;56.87;99587.27;1761359;80;21200;-54
2023/06/29 11:54:06;;;;;;;3.40;1.55;;;;;;;23.61;56.66;99596.21;1775324;80;21307;-53
2023/06/29 11:57:14;;;;;;;4.03;1.47;;;;;;;23.47;56.58;99590.35;1767936;78;21189;-55
2023/06/29 12:00:25;;;;;;;3.10;2.10;;;;;;;23.46;56.65;99583.10;1794391;79;21343;-55
2023/06/29 12:03:31;;;;;;;4.33;2.35;;;;;;;23.47;56.69;99586.16;1781422;79;21197;-55
2023/06/29 12:06:38;;;;;;;2.47;2.08;;;;;;;23.53;56.66;99596.80;1793890;79;21193;-55
2023/06/29 12:09:46;;;;;;;4.92;1.80;;;;;;;23.53;56.51;99591.21;1797583;79;21197;-55
2023/06/29 12:12:59;;;;;;;3.58;2.00;;;;;;;23.51;56.42;99586.45;1788511;79;21936;-56
2023/06/29 12:16:09;;;;;;;2.98;2.00;;;;;;;23.47;56.26;99593.70;1730714;82;21268;-55
2023/06/29 12:19:20;;;;;;;2.30;1.90;;;;;;;23.46;56.24;99580.86;1748302;79;21181;-55
2023/06/29 12:22:29;;;;;;;2.37;1.83;;;;;;;23.47;56.11;99592.30;1782418;79;21286;-55
2023/06/29 12:25:37;;;;;;;4.10;1.90;;;;;;;23.56;56.12;99587.85;1796546;79;21354;-56
2023/06/29 12:28:45;;;;;;;4.10;1.82;;;;;;;23.60;55.86;99590.35;1768705;79;21754;-55
2023/06/29 12:31:53;;;;;;;3.83;1.77;;;;;;;23.69;55.79;99583.66;1781899;79;21173;-55
2023/06/29 12:35:00;;;;;;;2.05;1.70;;;;;;;23.85;55.72;99582.53;1788907;79;21197;-55
2023/06/29 12:38:07;;;;;;;2.77;1.80;;;;;;;23.93;55.44;99582.77;1787758;79;21750;-56
2023/06/29 12:41:12;;;;;;;5.15;2.95;;;;;;;23.97;55.23;99585.33;1777394;79;21228;-55
2023/06/29 12:44:20;;;;;;;4.47;2.42;;;;;;;24.02;55.07;99579.73;1764056;79;21311;-56
2023/06/29 12:47:26;;;;;;;4.22;1.90;;;;;;;24.02;54.86;99586.73;1791440;79;21173;-56
2023/06/29 12:50:32;;;;;;;3.37;2.30;;;;;;;23.99;54.76;99584.47;1784768;79;21170;-55
2023/06/29 12:53:38;;;;;;;3.00;2.15;;;;;;;23.99;54.71;99582.25;1780115;79;21173;-55
2023/06/29 12:56:47;;;;;;;4.12;2.08;;;;;;;24.00;54.56;99580.57;1773138;79;21247;-55
2023/06/29 12:59:54;;;;;;;2.55;1.95;;;;;;;24.02;54.41;99585.88;1769012;79;21260;-55
2023/06/29 13:03:07;;;;;;;3.02;1.50;;;;;;;24.04;54.32;99579.45;1786432;79;21746;-54
2023/06/29 13:06:08;;;;;;;3.33;1.85;;;;;;;24.02;54.28;99579.73;1783823;79;21699;-54
2023/06/29 13:09:14;;;;;;;10.80;4.90;;;;;;;23.96;54.23;99573.00;1794541;79;21335;-56
2023/06/29 13:12:22;;;;;;;2.17;1.72;;;;;;;23.83;54.02;99574.97;1783815;79;21774;-54
2023/06/29 13:15:27;;;;;;;3.67;2.00;;;;;;;23.67;53.98;99576.10;1783837;79;21859;-54
2023/06/29 13:18:34;;;;;;;3.87;2.77;;;;;;;23.57;54.02;99567.16;1788495;79;21305;-56
2023/06/29 13:21:43;;;;;;;5.65;3.17;;;;;;;23.61;54.02;99557.09;1784805;79;21189;-54
2023/06/29 13:24:48;;;;;;;8.88;4.87;;;;;;;23.62;54.01;99554.59;1777431;79;21746;-54
2023/06/29 13:27:55;;;;;;;13.20;5.95;;;;;;;23.69;54.20;99543.94;1777790;79;21186;-53
2023/06/29 13:31:01;;;;;;;4.53;2.20;;;;;;;23.82;54.31;99530.80;1773130;79;21176;-55
2023/06/29 13:34:08;;;;;;;2.40;1.70;;;;;;;23.92;54.30;99534.13;1766133;79;21207;-55
2023/06/29 13:37:14;;;;;;;4.67;1.82;;;;;;;23.92;54.21;99527.98;1789130;79;21181;-54
2023/06/29 13:40:21;;;;;;;3.10;1.70;;;;;;;23.98;54.27;99518.48;1768360;81;21212;-56
2023/06/29 13:43:27;;;;;;;2.58;2.00;;;;;;;24.10;54.32;99518.18;1769169;80;21216;-53
2023/06/29 13:46:37;;;;;;;2.45;1.75;;;;;;;24.06;54.19;99512.31;1769353;80;21196;-54
2023/06/29 13:49:43;;;;;;;6.17;1.82;;;;;;;24.04;54.05;99518.75;1771170;79;21169;-55
2023/06/29 13:52:51;;;;;;;3.05;1.70;;;;;;;24.00;53.96;99519.05;1769018;79;21188;-57
2023/06/29 13:55:56;;;;;;;3.67;2.08;;;;;;;24.15;54.09;99507.80;1777309;79;21169;-56
2023/06/29 13:59:08;;;;;;;3.77;2.02;;;;;;;24.37;54.04;99513.05;1768585;81;21199;-55
2023/06/29 14:02:13;;;;;;;3.25;2.12;;;;;;;24.34;53.80;99510.23;1768456;79;21729;-59
2023/06/29 14:05:19;;;;;;;2.42;1.82;;;;;;;24.31;53.73;99506.62;1768360;81;21192;-61
2023/06/29 14:08:24;;;;;;;5.03;1.98;;;;;;;24.18;53.56;99503.03;1771245;79;21197;-61
2023/06/29 14:11:31;;;;;;;9.13;4.97;;;;;;;24.02;53.44;99503.39;1769059;79;21181;-58
2023/06/29 14:14:41;;;;;;;2.72;1.92;;;;;;;23.83;53.37;99504.53;1768030;81;21204;-57
2023/06/29 14:17:49;;;;;;;3.65;2.20;;;;;;;23.77;53.45;99504.83;1769026;79;21200;-58
2023/06/29 14:20:56;;;;;;;5.12;2.92;;;;;;;23.82;53.54;99499.23;1768384;81;21201;-57
2023/06/29 14:24:03;;;;;;;2.90;2.25;;;;;;;23.89;53.54;99497.80;1768315;80;21268;-59
2023/06/29 14:27:09;;;;;;;5.00;2.40;;;;;;;24.04;53.62;99496.38;1789905;79;21177;-58
2023/06/29 14:30:16;;;;;;;4.33;2.17;;;;;;;24.18;53.54;99494.64;1732082;83;21813;-58
2023/06/29 14:33:24;;;;;;;2.25;1.75;;;;;;;24.30;53.43;99495.16;1732560;82;21240;-57
2023/06/29 14:36:29;;;;;;;2.70;1.80;;;;;;;24.32;53.30;99499.07;1732639;82;21252;-56
2023/06/29 14:39:35;;;;;;;2.83;1.57;;;;;;;24.31;53.19;99498.23;1732864;83;21805;-57
2023/06/29 14:42:43;;;;;;;5.65;2.45;;;;;;;24.24;53.09;99503.31;1732614;83;21268;-56